Home > Products > Valid Products > TAF

000
FTUS43 KJKL 250500
TAFLOZ
TAF
KLOZ 250532Z 2506/2606 VRB03KT 6SM BR SCT100 BKN250
     FM251400 19005KT P6SM OVC100
     FM252200 20005KT P6SM -RA OVC040=



000
FTUS43 KJKL 250500
TAFJKL
TAF
KJKL 250532Z 2506/2606 23005KT 6SM BR SCT250
     FM251400 19005KT P6SM OVC100
     FM252200 20005KT P6SM -RA OVC040=



000
FTUS43 KJKL 250500
TAFSME
TAF
KSME 250532Z 2506/2606 VRB03KT 6SM BR SCT100 BKN250
     FM251400 19005KT P6SM OVC100
     FM252200 20005KT P6SM -RA OVC040=



000
FTUS43 KJKL 250400 AAA
TAFLOZ
TAF AMD
KLOZ 250407Z 2504/2524 VRB03KT 4SM BR FEW250
     FM250600 VRB03KT 6SM BR SCT100 BKN250
     FM251400 19005KT P6SM OVC100
     FM252200 20005KT P6SM -RA OVC040=



000
FTUS43 KJKL 250300 AAA
TAFSME
TAF AMD
KSME 250345Z 2504/2524 VRB03KT 5SM BR FEW250
     FM250600 VRB03KT 6SM BR SCT100 BKN250
     FM251400 19005KT P6SM OVC100
     FM252200 20005KT P6SM -RA OVC040=



000
FTUS43 KJKL 250300 AAA
TAFSME
TAF AMD
KSME 250345Z 2504/2524 VRB03KT 5SM BR FEW250
     FM250600 VRB03KT 6SM BR SCT100 BKN250
     FM251400 19005KT P6SM OVC100
     FM252200 20005KT P6SM -RA OVC040=



000
FTUS43 KJKL 242300
TAFJKL
TAF
KJKL 242335Z 2500/2524 24006KT P6SM OVC017
     FM250200 23005KT P6SM SCT020 BKN150
     FM251400 19005KT P6SM OVC100
     FM252200 20005KT P6SM -RA OVC040=



000
FTUS43 KJKL 242300
TAFLOZ
TAF
KLOZ 242335Z 2500/2524 25009KT P6SM BKN030
     FM250030 23005KT P6SM SCT100 BKN250
     FM251400 19005KT P6SM OVC100
     FM252200 20005KT P6SM -RA OVC040=



000
FTUS43 KJKL 242300
TAFSME
TAF
KSME 242335Z 2500/2524 24006KT P6SM FEW250
     FM251400 19005KT P6SM OVC100
     FM252200 20005KT P6SM -RA OVC040=



000
FTUS43 KJKL 242200 AAA
TAFSME
TAF AMD
KSME 242202Z 2422/2518 25009KT P6SM FEW015
     FM250100 23005KT P6SM OVC025
     FM251200 20009KT P6SM OVC040=



000
FTUS43 KJKL 242100 AAA
TAFLOZ
TAF AMD
KLOZ 242109Z 2421/2518 24009KT P6SM FEW015
     FM250100 24005KT P6SM OVC025
     FM251300 20009KT P6SM OVC040=



000
FTUS43 KJKL 241700
TAFLOZ
TAF
KLOZ 241729Z 2418/2518 24009KT P6SM OVC015
     FM250100 24005KT P6SM OVC025
     FM251300 20009KT P6SM OVC040=



000
FTUS43 KJKL 241700
TAFJKL
TAF
KJKL 241729Z 2418/2518 24009KT P6SM OVC015
     FM250600 23005KT P6SM OVC004
     FM251300 20009KT P6SM OVC040=



000
FTUS43 KJKL 241700
TAFSME
TAF
KSME 241729Z 2418/2518 25009KT P6SM OVC015
     FM250100 23005KT P6SM OVC025
     FM251200 20009KT P6SM OVC040=



000
FTUS43 KJKL 241400 AAB
TAFJKL
TAF AMD
KJKL 241410Z 2414/2512 30009KT 4SM -SN BR SCT007 OVC015
      TEMPO 2414/2417 BKN007
     FM241800 30005KT P6SM OVC015
     FM250100 29005KT P6SM OVC007=



000
FTUS43 KJKL 241200 AAA
TAFJKL
TAF AMD
KJKL 241259Z 2413/2512 30008KT 5SM -SN BR OVC003
     FM241500 30005KT P6SM OVC010
     FM241600 29005KT P6SM OVC025=



000
FTUS43 KJKL 241200 AAA
TAFSME
TAF AMD
KSME 241259Z 2413/2512 32007KT P6SM OVC019
     FM241600 29007KT P6SM OVC030=



000
FTUS43 KJKL 241100
TAFSME
TAF
KSME 241131Z 2412/2512 30006KT P6SM OVC005
     FM241400 30005KT P6SM OVC019
     FM241600 29007KT P6SM OVC030=



000
FTUS43 KJKL 241100
TAFJKL
TAF
KJKL 241131Z 2412/2512 VRB04KT 1SM -SN BR OVC007
     FM241400 30005KT P6SM OVC010
     FM241600 29005KT P6SM OVC025=



000
FTUS43 KJKL 241100
TAFLOZ
TAF
KLOZ 241131Z 2412/2512 31007KT 4SM -SN BR OVC009
     FM241400 30005KT 5SM BR OVC019
     FM241600 29007KT P6SM OVC030=



000
FTUS43 KJKL 240500
TAFLOZ
TAF
KLOZ 240528Z 2406/2506 03005KT 5SM -RA BR OVC005
     FM240700 34005KT 3SM -SN BR OVC003
     FM240800 33006KT 2SM -SN BR OVC003
     FM241200 31007KT P6SM OVC015
     FM241400 29007KT P6SM SCT025=



000
FTUS43 KJKL 240500
TAFSME
TAF
KSME 240528Z 2406/2506 03004KT 5SM -SN BR OVC005
     FM240700 33005KT 2SM -SN BR OVC005
     FM241000 32006KT 3SM -SN BR OVC015
     FM241200 30006KT P6SM BKN025=



000
FTUS43 KJKL 240500
TAFJKL
TAF
KJKL 240528Z 2406/2506 VRB04KT 1SM -SN BR OVC003
     FM241300 30005KT P6SM OVC015
     FM241500 29005KT P6SM BKN025
     FM241600 28005KT P6SM SCT050=



000
FTUS43 KJKL 240100 AAA
TAFSME
TAF AMD
KSME 240111Z 2401/2424 03004KT 5SM -RA BR OVC005
     FM240500 33005KT 2SM -SN BR OVC005
     FM241000 32006KT 3SM -SN BR BKN015
     FM241200 30006KT P6SM SCT025=



000
FTUS43 KJKL 232300
TAFJKL
TAF
KJKL 232335Z 2400/2424 VRB03KT 2SM -RA BR OVC004
     FM240500 33004KT 1SM -SN BR OVC003
     FM241200 30005KT P6SM BKN015
     FM241400 29005KT P6SM BKN025
     FM241500 28005KT P6SM SCT050=



000
FTUS43 KJKL 232300
TAFLOZ
TAF
KLOZ 232335Z 2400/2424 03005KT 5SM -RA BR OVC005
     FM240600 34005KT 3SM -SN BR OVC003
     FM240800 33006KT 2SM -SN BR OVC003
     FM241100 31007KT P6SM BKN015
     FM241400 29007KT P6SM SCT025=



000
FTUS43 KJKL 232300
TAFSME
TAF
KSME 232335Z 2400/2424 03006KT 5SM -RA BR SCT005 OVC025
     FM240100 36005KT 5SM -RASN BR OVC007
     FM240500 33005KT 2SM -SN BR OVC005
     FM241000 32006KT 3SM -SN BR BKN015
     FM241200 30006KT P6SM SCT025=



000
FTUS43 KJKL 232100 AAA
TAFJKL
TAF AMD
KJKL 232147Z 2322/2418 VRB03KT 2SM RA BR OVC004
     FM240200 VRB03KT 3SM -RASN OVC004
     FM240800 33004KT 2SM -SN BR OVC003
     FM241200 30005KT P6SM BKN015
     FM241400 29005KT P6SM BKN025
     FM241500 28005KT P6SM SCT050=



000
FTUS43 KJKL 232100 AAA
TAFLOZ
TAF AMD
KLOZ 232147Z 2322/2418 03005KT 5SM -RA BR OVC005
     FM240400 36005KT 5SM -RASN BR OVC008
     FM240600 34005KT 3SM -SN BR OVC008
     FM240800 33006KT 2SM -SN BR OVC003
     FM241100 31007KT P6SM BKN015
     FM241400 29007KT P6SM SCT025=



000
FTUS43 KJKL 232100 AAA
TAFSME
TAF AMD
KSME 232147Z 2322/2418 03006KT 5SM -RA BR OVC007
     FM240300 36005KT 5SM -RASN BR OVC008
     FM240800 33005KT 3SM -SN BR OVC005
     FM241000 32006KT 3SM -SN BR BKN015
     FM241200 30006KT P6SM SCT025=



000
FTUS43 KJKL 232100 AAA
TAFLOZ
TAF AMD
KLOZ 232147Z 2322/2418 03005KT 5SM -RA BR OVC005
     FM240400 36005KT 5SM -RASN BR OVC008
     FM240600 34005KT 3SM -SN BR OVC008
     FM240800 33006KT 2SM -SN BR OVC003
     FM241100 31007KT P6SM BKN015
     FM241400 29007KT P6SM SCT025=



000
FTUS43 KJKL 232100 AAA
TAFSME
TAF AMD
KSME 232147Z 2322/2418 03006KT 5SM -RA BR OVC007
     FM240300 36005KT 5SM -RASN BR OVC008
     FM240800 33005KT 3SM -SN BR OVC005
     FM241000 32006KT 3SM -SN BR BKN015
     FM241200 30006KT P6SM SCT025=



000
FTUS43 KJKL 232100 AAA
TAFJKL
TAF AMD
KJKL 232147Z 2322/2418 VRB03KT 2SM RA BR OVC004
     FM240200 VRB03KT 3SM -RASN OVC004
     FM240800 33004KT 2SM -SN BR OVC003
     FM241200 30005KT P6SM BKN015
     FM241400 29005KT P6SM BKN025
     FM241500 28005KT P6SM SCT050=



000
FTUS43 KJKL 231700 RRA
TAFSME
TAF
KSME 231739Z 2318/2418 03005KT 6SM -RA BR OVC035
     FM232000 03005KT 6SM -RA BR OVC025
     FM240300 36005KT 5SM -RASN BR OVC015
     FM240800 33005KT 3SM -RASN BR OVC005
     FM241000 32006KT 3SM -SNRA BR BKN015
     FM241200 30006KT P6SM SCT025=



000
FTUS43 KJKL 231700 RRA
TAFLOZ
TAF
KLOZ 231739Z 2318/2418 02005KT 6SM -RA BR OVC035
     FM232000 03005KT 6SM -RA BR OVC025
     FM240400 36005KT 5SM -RASN BR OVC015
     FM240600 34005KT 3SM -SN BR OVC008
     FM240800 33006KT 2SM -RASN BR OVC003
     FM241100 31007KT P6SM BKN015
     FM241400 29007KT P6SM SCT025=



000
FTUS43 KJKL 231700 RRA
TAFJKL
TAF
KJKL 231739Z 2318/2418 VRB03KT 6SM RA BR OVC035
     FM231900 VRB03KT 6SM -RA BR OVC025
     FM240200 VRB03KT 3SM -RASN BR OVC008
     FM240800 33004KT 2SM -SNRA BR OVC003
     FM241200 30005KT P6SM BKN015
     FM241400 29005KT P6SM BKN025
     FM241500 28005KT P6SM SCT050=



000
FTUS43 KJKL 231100 RRA
TAFSME
TAF
KSME 231146Z 2312/2412 VRB03KT P6SM SCT040 OVC090
     FM231300 VRB03KT P6SM -RA OVC040
     FM231600 03003KT 3SM -RA BR OVC015
     FM231800 01003KT 2SM -RA BR BKN006 OVC012
     FM240500 33005KT 1SM -SN BR BKN005 OVC010=



000
FTUS43 KJKL 231100 RRA
TAFJKL
TAF
KJKL 231146Z 2312/2412 VRB03KT P6SM SCT040 OVC090
     FM231400 VRB03KT P6SM -RA OVC040
     FM231600 01003KT 3SM -RA BR OVC025
     FM231900 01003KT 2SM -RA BR BKN008 OVC012
     FM240100 34003KT 1SM -RA BR BKN005 OVC010
     FM240600 32003KT 1SM -SN BR BKN005 OVC010=



000
FTUS43 KJKL 231100 RRA
TAFLOZ
TAF
KLOZ 231146Z 2312/2412 VRB03KT P6SM SCT040 OVC090
     FM231300 VRB03KT P6SM -RA OVC040
     FM231600 03003KT 3SM -RA BR OVC015
     FM231800 01003KT 2SM -RA BR BKN006 OVC012
     FM240500 33005KT 1SM -SN BR BKN005 OVC010=



000
FTUS43 KJKL 230500 RRA
TAFJKL
TAF
KJKL 230541Z 2306/2406 04003KT P6SM SCT100 OVC200
     FM230900 VRB03KT P6SM BKN100 OVC200
     FM231400 VRB03KT P6SM VCSH OVC040
     FM231600 01003KT 2SM -RA BR OVC015
     FM232000 01003KT 2SM -RA BR BKN006 OVC012
     FM240000 34003KT 1SM -RASN BR BKN005 OVC010=



000
FTUS43 KJKL 230500 RRA
TAFSME
TAF
KSME 230541Z 2306/2406 03004KT P6SM SCT100 OVC200
     FM230800 04003KT P6SM BKN100 OVC200
     FM231200 04003KT P6SM VCSH OVC040
     FM231500 03003KT 3SM -RA BR OVC015
     FM231800 01003KT 2SM -RA BR BKN006 OVC012
     FM232300 34005KT 1SM -RASN BR BKN005 OVC010=



000
FTUS43 KJKL 230500 RRA
TAFLOZ
TAF
KLOZ 230541Z 2306/2406 03004KT P6SM SCT100 OVC200
     FM230800 04003KT P6SM BKN100 OVC200
     FM231200 04003KT P6SM VCSH OVC040
     FM231500 03003KT 3SM -RA BR OVC015
     FM231800 01003KT 2SM -RA BR BKN006 OVC012
     FM232300 34005KT 1SM -RASN BR BKN005 OVC010=



000
FTUS43 KJKL 230000 AAA
TAFJKL
TAF AMD
KJKL 230057Z 2301/2324 VRB03KT P6SM SCT025
     FM230400 VRB03KT P6SM FEW035 BKN100
     FM231400 VRB06KT P6SM VCSH OVC040=



000
FTUS43 KJKL 222300
TAFJKL
TAF
KJKL 222320Z 2300/2324 VRB03KT P6SM BKN025
     FM230400 VRB03KT P6SM FEW035 BKN100
     FM231400 VRB06KT P6SM VCSH OVC040=



000
FTUS43 KJKL 222300
TAFSME
TAF
KSME 222320Z 2300/2324 VRB03KT P6SM FEW040 BKN150
     FM230200 VRB03KT P6SM BKN080
     FM231200 VRB03KT P6SM VCSH OVC035
     FM231600 06003KT 6SM -SHRA OVC025=



000
FTUS43 KJKL 222300
TAFLOZ
TAF
KLOZ 222320Z 2300/2324 VRB03KT P6SM FEW040 BKN150
     FM230300 VRB03KT P6SM BKN080
     FM231300 VRB06KT P6SM VCSH OVC040=



000
FTUS43 KJKL 221700 RRA
TAFJKL
TAF
KJKL 221739Z 2218/2318 VRB03KT P6SM BKN030
     FM222300 VRB03KT P6SM FEW040 BKN150
     FM231600 VRB06KT P6SM VCSH OVC050=



000
FTUS43 KJKL 221700 RRA
TAFLOZ
TAF
KLOZ 221739Z 2218/2318 35004KT P6SM BKN030
     FM222200 VRB03KT P6SM VCSH FEW040 BKN150
     FM231500 VRB06KT P6SM VCSH OVC050=



000
FTUS43 KJKL 221700 RRA
TAFSME
TAF
KSME 221739Z 2218/2318 VRB03KT P6SM BKN030
     FM222300 VRB03KT P6SM FEW040 BKN150
     FM231500 VRB06KT P6SM VCSH OVC050=



000
FTUS43 KJKL 221500 CCA
TAFJKL
TAF COR
KJKL 221515Z 2215/2312 VRB03KT P6SM BKN035 BKN200
      TEMPO 2215/2218 BKN030=



000
FTUS43 KJKL 221500 AAA
TAFJKL
TAF AMD
KJKL 221502Z 2215/2312 VRB03KT P6SM SCT025 SCT200=



000
FTUS43 KJKL 221100
TAFSME
TAF
KSME 221135Z 2212/2312 VRB03KT P6SM BKN150
     FM221700 VRB03KT P6SM SCT025 SCT200=



000
FTUS43 KJKL 221100
TAFJKL
TAF
KJKL 221135Z 2212/2312 VRB03KT P6SM SCT025 SCT200
      TEMPO 2212/2216 BKN015 BKN200=



000
FTUS43 KJKL 221100
TAFLOZ
TAF
KLOZ 221135Z 2212/2312 VRB03KT P6SM BKN150
     FM221700 VRB03KT P6SM SCT025 SCT200=



    US Dept of Commerce
    National Oceanic and Atmospheric Administration
    National Weather Service
    1325 East West Highway
    Silver Spring, MD 20910
    Page Author: NWS Internet Services Team
Disclaimer
Information Quality
Credits
Glossary
Privacy Policy
Freedom of Information Act (FOIA)
About Us
Career Opportunities